sensor_id;sensor_type;location;lat;lon;timestamp;P1;durP1;ratioP1;P2;durP2;ratioP2
31978;SDS011;18502;43.574;1.276;2023-07-29T00:00:51;7.30;;;4.93;;
31978;SDS011;18502;43.574;1.276;2023-07-29T00:03:16;5.30;;;4.80;;
31978;SDS011;18502;43.574;1.276;2023-07-29T00:05:42;8.10;;;5.65;;
31978;SDS011;18502;43.574;1.276;2023-07-29T00:08:08;5.18;;;4.65;;
31978;SDS011;18502;43.574;1.276;2023-07-29T00:10:36;6.78;;;5.05;;
31978;SDS011;18502;43.574;1.276;2023-07-29T00:13:02;6.20;;;4.78;;
31978;SDS011;18502;43.574;1.276;2023-07-29T00:15:28;7.55;;;4.70;;
31978;SDS011;18502;43.574;1.276;2023-07-29T00:17:54;7.00;;;5.00;;
31978;SDS011;18502;43.574;1.276;2023-07-29T00:20:20;5.55;;;4.70;;
31978;SDS011;18502;43.574;1.276;2023-07-29T00:22:45;5.07;;;4.50;;
31978;SDS011;18502;43.574;1.276;2023-07-29T00:25:11;4.50;;;4.10;;
31978;SDS011;18502;43.574;1.276;2023-07-29T00:27:37;5.43;;;4.93;;
31978;SDS011;18502;43.574;1.276;2023-07-29T00:30:03;5.80;;;5.00;;
31978;SDS011;18502;43.574;1.276;2023-07-29T00:32:29;6.60;;;5.28;;
31978;SDS011;18502;43.574;1.276;2023-07-29T00:34:56;9.30;;;5.40;;
31978;SDS011;18502;43.574;1.276;2023-07-29T00:37:21;8.05;;;5.70;;
31978;SDS011;18502;43.574;1.276;2023-07-29T00:39:47;9.88;;;6.00;;
31978;SDS011;18502;43.574;1.276;2023-07-29T00:42:13;6.28;;;5.32;;
31978;SDS011;18502;43.574;1.276;2023-07-29T00:44:38;9.50;;;5.70;;
31978;SDS011;18502;43.574;1.276;2023-07-29T00:47:04;6.82;;;6.07;;
31978;SDS011;18502;43.574;1.276;2023-07-29T00:49:31;9.35;;;6.03;;
31978;SDS011;18502;43.574;1.276;2023-07-29T00:51:57;6.70;;;6.00;;
31978;SDS011;18502;43.574;1.276;2023-07-29T00:54:23;8.77;;;5.57;;
31978;SDS011;18502;43.574;1.276;2023-07-29T00:56:49;7.05;;;5.97;;
31978;SDS011;18502;43.574;1.276;2023-07-29T00:59:15;7.43;;;6.18;;
31978;SDS011;18502;43.574;1.276;2023-07-29T01:01:40;8.13;;;5.57;;
31978;SDS011;18502;43.574;1.276;2023-07-29T01:04:07;7.68;;;5.78;;
31978;SDS011;18502;43.574;1.276;2023-07-29T01:06:41;12.38;;;6.82;;
31978;SDS011;18502;43.574;1.276;2023-07-29T01:18:31;8.00;;;6.80;;
31978;SDS011;18502;43.574;1.276;2023-07-29T01:20:53;7.68;;;6.43;;
31978;SDS011;18502;43.574;1.276;2023-07-29T01:23:31;7.63;;;6.40;;
31978;SDS011;18502;43.574;1.276;2023-07-29T01:25:57;12.63;;;6.88;;
31978;SDS011;18502;43.574;1.276;2023-07-29T01:28:23;7.80;;;7.00;;
31978;SDS011;18502;43.574;1.276;2023-07-29T01:30:50;12.38;;;7.47;;
31978;SDS011;18502;43.574;1.276;2023-07-29T01:33:30;13.18;;;7.95;;
31978;SDS011;18502;43.574;1.276;2023-07-29T01:36:06;18.25;;;7.50;;
31978;SDS011;18502;43.574;1.276;2023-07-29T01:38:36;6.97;;;6.13;;
31978;SDS011;18502;43.574;1.276;2023-07-29T01:41:06;8.80;;;5.93;;
31978;SDS011;18502;43.574;1.276;2023-07-29T01:43:33;6.05;;;5.45;;
31978;SDS011;18502;43.574;1.276;2023-07-29T01:46:02;7.32;;;6.22;;
31978;SDS011;18502;43.574;1.276;2023-07-29T01:48:28;5.93;;;5.30;;
31978;SDS011;18502;43.574;1.276;2023-07-29T01:50:56;7.28;;;5.30;;
31978;SDS011;18502;43.574;1.276;2023-07-29T01:53:22;7.70;;;5.47;;
31978;SDS011;18502;43.574;1.276;2023-07-29T01:55:47;7.32;;;5.45;;
31978;SDS011;18502;43.574;1.276;2023-07-29T01:58:13;6.75;;;5.35;;
31978;SDS011;18502;43.574;1.276;2023-07-29T02:00:39;8.75;;;5.80;;
31978;SDS011;18502;43.574;1.276;2023-07-29T02:03:05;5.75;;;5.22;;
31978;SDS011;18502;43.574;1.276;2023-07-29T02:05:31;10.10;;;5.55;;
31978;SDS011;18502;43.574;1.276;2023-07-29T02:07:56;6.22;;;5.63;;
31978;SDS011;18502;43.574;1.276;2023-07-29T02:10:22;6.65;;;5.82;;
31978;SDS011;18502;43.574;1.276;2023-07-29T02:12:47;8.27;;;5.55;;
31978;SDS011;18502;43.574;1.276;2023-07-29T02:15:13;7.85;;;5.45;;
31978;SDS011;18502;43.574;1.276;2023-07-29T02:17:42;6.53;;;4.97;;
31978;SDS011;18502;43.574;1.276;2023-07-29T02:20:08;7.43;;;5.13;;
31978;SDS011;18502;43.574;1.276;2023-07-29T02:22:35;6.65;;;4.78;;
31978;SDS011;18502;43.574;1.276;2023-07-29T02:25:01;7.85;;;4.63;;
31978;SDS011;18502;43.574;1.276;2023-07-29T02:27:27;8.05;;;5.40;;
31978;SDS011;18502;43.574;1.276;2023-07-29T02:29:53;6.63;;;4.85;;
31978;SDS011;18502;43.574;1.276;2023-07-29T02:32:19;5.88;;;4.72;;
31978;SDS011;18502;43.574;1.276;2023-07-29T02:34:45;8.55;;;5.13;;
31978;SDS011;18502;43.574;1.276;2023-07-29T02:37:11;9.90;;;5.72;;
31978;SDS011;18502;43.574;1.276;2023-07-29T02:39:37;8.10;;;5.20;;
31978;SDS011;18502;43.574;1.276;2023-07-29T02:42:02;10.85;;;5.85;;
31978;SDS011;18502;43.574;1.276;2023-07-29T02:44:28;7.50;;;5.47;;
31978;SDS011;18502;43.574;1.276;2023-07-29T02:46:54;6.80;;;4.68;;
31978;SDS011;18502;43.574;1.276;2023-07-29T02:49:21;5.45;;;4.90;;
31978;SDS011;18502;43.574;1.276;2023-07-29T02:51:47;5.78;;;5.03;;
31978;SDS011;18502;43.574;1.276;2023-07-29T02:54:12;7.63;;;5.28;;
31978;SDS011;18502;43.574;1.276;2023-07-29T02:56:38;8.07;;;5.20;;
31978;SDS011;18502;43.574;1.276;2023-07-29T02:59:04;6.65;;;5.45;;
31978;SDS011;18502;43.574;1.276;2023-07-29T03:01:30;7.95;;;6.03;;
31978;SDS011;18502;43.574;1.276;2023-07-29T03:03:56;9.15;;;6.25;;
31978;SDS011;18502;43.574;1.276;2023-07-29T03:06:21;9.07;;;5.80;;
31978;SDS011;18502;43.574;1.276;2023-07-29T03:08:47;9.70;;;5.80;;
31978;SDS011;18502;43.574;1.276;2023-07-29T03:11:13;7.75;;;6.57;;
31978;SDS011;18502;43.574;1.276;2023-07-29T03:13:40;7.93;;;5.60;;
31978;SDS011;18502;43.574;1.276;2023-07-29T03:18:31;9.05;;;6.07;;
31978;SDS011;18502;43.574;1.276;2023-07-29T03:20:57;7.38;;;5.70;;
31978;SDS011;18502;43.574;1.276;2023-07-29T03:23:22;6.97;;;5.25;;
31978;SDS011;18502;43.574;1.276;2023-07-29T03:25:49;8.60;;;6.15;;
31978;SDS011;18502;43.574;1.276;2023-07-29T03:28:16;6.22;;;4.97;;
31978;SDS011;18502;43.574;1.276;2023-07-29T03:30:42;8.15;;;5.10;;
31978;SDS011;18502;43.574;1.276;2023-07-29T03:33:07;5.95;;;4.78;;
31978;SDS011;18502;43.574;1.276;2023-07-29T03:35:33;6.00;;;5.40;;
31978;SDS011;18502;43.574;1.276;2023-07-29T03:37:59;6.60;;;5.57;;
31978;SDS011;18502;43.574;1.276;2023-07-29T03:40:24;6.15;;;5.25;;
31978;SDS011;18502;43.574;1.276;2023-07-29T03:42:50;5.93;;;5.30;;
31978;SDS011;18502;43.574;1.276;2023-07-29T03:45:15;6.45;;;5.80;;
31978;SDS011;18502;43.574;1.276;2023-07-29T03:47:41;6.55;;;5.85;;
31978;SDS011;18502;43.574;1.276;2023-07-29T03:50:07;7.50;;;5.90;;
31978;SDS011;18502;43.574;1.276;2023-07-29T03:52:33;12.77;;;7.22;;
31978;SDS011;18502;43.574;1.276;2023-07-29T03:54:59;10.25;;;7.13;;
31978;SDS011;18502;43.574;1.276;2023-07-29T03:57:24;10.77;;;7.40;;
31978;SDS011;18502;43.574;1.276;2023-07-29T03:59:50;8.48;;;6.45;;
31978;SDS011;18502;43.574;1.276;2023-07-29T04:02:16;10.27;;;6.60;;
31978;SDS011;18502;43.574;1.276;2023-07-29T04:04:41;13.10;;;7.85;;
31978;SDS011;18502;43.574;1.276;2023-07-29T04:07:09;9.48;;;7.60;;
31978;SDS011;18502;43.574;1.276;2023-07-29T04:09:34;11.25;;;7.97;;
31978;SDS011;18502;43.574;1.276;2023-07-29T04:12:00;10.90;;;8.00;;
31978;SDS011;18502;43.574;1.276;2023-07-29T04:14:26;11.23;;;7.82;;
31978;SDS011;18502;43.574;1.276;2023-07-29T04:16:52;10.45;;;8.68;;
31978;SDS011;18502;43.574;1.276;2023-07-29T04:19:17;9.60;;;8.38;;
31978;SDS011;18502;43.574;1.276;2023-07-29T04:21:43;11.95;;;8.35;;
31978;SDS011;18502;43.574;1.276;2023-07-29T04:24:09;10.88;;;8.48;;
31978;SDS011;18502;43.574;1.276;2023-07-29T04:26:34;11.13;;;7.20;;
31978;SDS011;18502;43.574;1.276;2023-07-29T04:29:00;12.77;;;7.88;;
31978;SDS011;18502;43.574;1.276;2023-07-29T04:31:26;11.45;;;7.80;;
31978;SDS011;18502;43.574;1.276;2023-07-29T04:33:51;13.48;;;8.00;;
31978;SDS011;18502;43.574;1.276;2023-07-29T04:36:17;12.88;;;7.80;;
31978;SDS011;18502;43.574;1.276;2023-07-29T04:38:42;11.45;;;9.05;;
31978;SDS011;18502;43.574;1.276;2023-07-29T04:41:08;10.63;;;8.00;;
31978;SDS011;18502;43.574;1.276;2023-07-29T04:43:34;10.05;;;7.75;;
31978;SDS011;18502;43.574;1.276;2023-07-29T04:45:59;13.82;;;7.63;;
31978;SDS011;18502;43.574;1.276;2023-07-29T04:48:25;13.05;;;7.93;;
31978;SDS011;18502;43.574;1.276;2023-07-29T04:50:51;12.63;;;7.35;;
31978;SDS011;18502;43.574;1.276;2023-07-29T04:53:16;11.90;;;6.78;;
31978;SDS011;18502;43.574;1.276;2023-07-29T04:55:42;8.55;;;6.82;;
31978;SDS011;18502;43.574;1.276;2023-07-29T04:58:08;7.03;;;6.32;;
31978;SDS011;18502;43.574;1.276;2023-07-29T05:00:34;9.25;;;6.97;;
31978;SDS011;18502;43.574;1.276;2023-07-29T05:03:00;8.85;;;6.40;;
31978;SDS011;18502;43.574;1.276;2023-07-29T05:05:26;8.40;;;5.93;;
31978;SDS011;18502;43.574;1.276;2023-07-29T05:07:52;8.32;;;6.30;;
31978;SDS011;18502;43.574;1.276;2023-07-29T05:10:18;10.35;;;6.70;;
31978;SDS011;18502;43.574;1.276;2023-07-29T05:12:43;11.13;;;5.60;;
31978;SDS011;18502;43.574;1.276;2023-07-29T05:15:09;7.05;;;6.05;;
31978;SDS011;18502;43.574;1.276;2023-07-29T05:17:35;8.45;;;6.82;;
31978;SDS011;18502;43.574;1.276;2023-07-29T05:20:01;11.02;;;5.78;;
31978;SDS011;18502;43.574;1.276;2023-07-29T05:22:27;11.60;;;7.35;;
31978;SDS011;18502;43.574;1.276;2023-07-29T05:24:53;7.88;;;6.05;;
31978;SDS011;18502;43.574;1.276;2023-07-29T05:27:19;7.40;;;6.25;;
31978;SDS011;18502;43.574;1.276;2023-07-29T05:29:44;12.07;;;6.20;;
31978;SDS011;18502;43.574;1.276;2023-07-29T05:32:10;9.38;;;5.85;;
31978;SDS011;18502;43.574;1.276;2023-07-29T05:34:36;9.07;;;6.05;;
31978;SDS011;18502;43.574;1.276;2023-07-29T05:37:01;11.43;;;6.43;;
31978;SDS011;18502;43.574;1.276;2023-07-29T05:39:27;8.35;;;6.78;;
31978;SDS011;18502;43.574;1.276;2023-07-29T05:41:53;12.45;;;7.18;;
31978;SDS011;18502;43.574;1.276;2023-07-29T05:44:19;9.18;;;6.68;;
31978;SDS011;18502;43.574;1.276;2023-07-29T05:46:44;14.32;;;6.85;;
31978;SDS011;18502;43.574;1.276;2023-07-29T05:49:10;11.75;;;6.82;;
31978;SDS011;18502;43.574;1.276;2023-07-29T05:51:36;9.15;;;6.78;;
31978;SDS011;18502;43.574;1.276;2023-07-29T05:54:02;9.73;;;6.53;;
31978;SDS011;18502;43.574;1.276;2023-07-29T05:56:28;8.95;;;6.38;;
31978;SDS011;18502;43.574;1.276;2023-07-29T05:58:54;10.13;;;6.82;;
31978;SDS011;18502;43.574;1.276;2023-07-29T06:01:20;9.38;;;6.68;;
31978;SDS011;18502;43.574;1.276;2023-07-29T06:03:46;8.95;;;6.97;;
31978;SDS011;18502;43.574;1.276;2023-07-29T06:06:12;9.00;;;6.80;;
31978;SDS011;18502;43.574;1.276;2023-07-29T06:08:37;9.88;;;6.72;;
31978;SDS011;18502;43.574;1.276;2023-07-29T06:11:03;11.60;;;7.72;;
31978;SDS011;18502;43.574;1.276;2023-07-29T06:13:31;7.53;;;6.10;;
31978;SDS011;18502;43.574;1.276;2023-07-29T06:15:57;8.05;;;6.95;;
31978;SDS011;18502;43.574;1.276;2023-07-29T06:18:23;14.30;;;6.70;;
31978;SDS011;18502;43.574;1.276;2023-07-29T06:20:49;9.32;;;6.13;;
31978;SDS011;18502;43.574;1.276;2023-07-29T06:23:15;8.65;;;5.68;;
31978;SDS011;18502;43.574;1.276;2023-07-29T06:25:41;8.30;;;5.53;;
31978;SDS011;18502;43.574;1.276;2023-07-29T06:28:06;9.52;;;5.80;;
31978;SDS011;18502;43.574;1.276;2023-07-29T06:30:32;6.28;;;5.65;;
31978;SDS011;18502;43.574;1.276;2023-07-29T06:32:58;10.30;;;6.30;;
31978;SDS011;18502;43.574;1.276;2023-07-29T06:35:23;9.07;;;6.35;;
31978;SDS011;18502;43.574;1.276;2023-07-29T06:37:49;6.45;;;4.95;;
31978;SDS011;18502;43.574;1.276;2023-07-29T06:40:15;7.80;;;5.50;;
31978;SDS011;18502;43.574;1.276;2023-07-29T06:42:40;8.52;;;6.15;;
31978;SDS011;18502;43.574;1.276;2023-07-29T06:45:06;9.20;;;5.10;;
31978;SDS011;18502;43.574;1.276;2023-07-29T06:47:32;10.60;;;5.30;;
31978;SDS011;18502;43.574;1.276;2023-07-29T06:49:58;6.95;;;4.65;;
31978;SDS011;18502;43.574;1.276;2023-07-29T06:52:23;8.70;;;5.65;;
31978;SDS011;18502;43.574;1.276;2023-07-29T06:54:49;10.10;;;5.20;;
31978;SDS011;18502;43.574;1.276;2023-07-29T06:57:15;7.60;;;5.07;;
31978;SDS011;18502;43.574;1.276;2023-07-29T06:59:40;8.05;;;4.70;;
31978;SDS011;18502;43.574;1.276;2023-07-29T07:02:06;6.20;;;4.57;;
31978;SDS011;18502;43.574;1.276;2023-07-29T07:04:32;10.23;;;5.40;;
31978;SDS011;18502;43.574;1.276;2023-07-29T07:06:58;10.48;;;4.95;;
31978;SDS011;18502;43.574;1.276;2023-07-29T07:09:23;7.43;;;4.72;;
31978;SDS011;18502;43.574;1.276;2023-07-29T07:11:49;8.90;;;4.68;;
31978;SDS011;18502;43.574;1.276;2023-07-29T07:14:15;7.93;;;4.40;;
31978;SDS011;18502;43.574;1.276;2023-07-29T07:16:40;8.38;;;5.00;;
31978;SDS011;18502;43.574;1.276;2023-07-29T07:19:06;6.82;;;4.72;;
31978;SDS011;18502;43.574;1.276;2023-07-29T07:21:31;9.18;;;4.97;;
31978;SDS011;18502;43.574;1.276;2023-07-29T07:24:00;9.40;;;4.28;;
31978;SDS011;18502;43.574;1.276;2023-07-29T07:26:26;10.15;;;5.43;;
31978;SDS011;18502;43.574;1.276;2023-07-29T07:28:52;6.95;;;4.18;;
31978;SDS011;18502;43.574;1.276;2023-07-29T07:31:17;9.15;;;4.88;;
31978;SDS011;18502;43.574;1.276;2023-07-29T07:33:43;7.90;;;4.43;;
31978;SDS011;18502;43.574;1.276;2023-07-29T07:36:09;6.18;;;4.45;;
31978;SDS011;18502;43.574;1.276;2023-07-29T07:38:35;8.55;;;4.82;;
31978;SDS011;18502;43.574;1.276;2023-07-29T07:41:00;4.38;;;3.97;;
31978;SDS011;18502;43.574;1.276;2023-07-29T07:43:26;6.03;;;4.38;;
31978;SDS011;18502;43.574;1.276;2023-07-29T07:45:57;12.10;;;5.13;;
31978;SDS011;18502;43.574;1.276;2023-07-29T07:48:24;5.72;;;4.40;;
31978;SDS011;18502;43.574;1.276;2023-07-29T07:50:50;6.82;;;4.25;;
31978;SDS011;18502;43.574;1.276;2023-07-29T07:53:16;9.02;;;4.35;;
31978;SDS011;18502;43.574;1.276;2023-07-29T07:55:41;6.47;;;4.28;;
31978;SDS011;18502;43.574;1.276;2023-07-29T07:58:07;11.90;;;4.28;;
31978;SDS011;18502;43.574;1.276;2023-07-29T08:00:33;9.95;;;4.30;;
31978;SDS011;18502;43.574;1.276;2023-07-29T08:02:58;6.63;;;4.30;;
31978;SDS011;18502;43.574;1.276;2023-07-29T08:05:24;8.93;;;4.13;;
31978;SDS011;18502;43.574;1.276;2023-07-29T08:07:49;7.90;;;4.40;;
31978;SDS011;18502;43.574;1.276;2023-07-29T08:10:15;8.18;;;3.88;;
31978;SDS011;18502;43.574;1.276;2023-07-29T08:12:41;8.95;;;4.75;;
31978;SDS011;18502;43.574;1.276;2023-07-29T08:15:06;6.95;;;4.22;;
31978;SDS011;18502;43.574;1.276;2023-07-29T08:17:32;6.15;;;4.18;;
31978;SDS011;18502;43.574;1.276;2023-07-29T08:19:58;5.22;;;4.68;;
31978;SDS011;18502;43.574;1.276;2023-07-29T08:22:23;7.63;;;4.38;;
31978;SDS011;18502;43.574;1.276;2023-07-29T08:24:49;5.15;;;4.10;;
31978;SDS011;18502;43.574;1.276;2023-07-29T08:27:15;8.93;;;4.43;;
31978;SDS011;18502;43.574;1.276;2023-07-29T08:29:40;9.25;;;4.60;;
31978;SDS011;18502;43.574;1.276;2023-07-29T08:32:06;5.75;;;4.38;;
31978;SDS011;18502;43.574;1.276;2023-07-29T08:34:32;4.78;;;4.28;;
31978;SDS011;18502;43.574;1.276;2023-07-29T08:37:00;7.43;;;4.50;;
31978;SDS011;18502;43.574;1.276;2023-07-29T08:39:26;6.03;;;4.45;;
31978;SDS011;18502;43.574;1.276;2023-07-29T08:44:36;5.55;;;3.90;;
31978;SDS011;18502;43.574;1.276;2023-07-29T08:47:06;4.18;;;3.63;;
31978;SDS011;18502;43.574;1.276;2023-07-29T08:49:32;4.43;;;3.95;;
31978;SDS011;18502;43.574;1.276;2023-07-29T08:51:58;5.53;;;4.68;;
31978;SDS011;18502;43.574;1.276;2023-07-29T08:54:26;5.10;;;4.03;;
31978;SDS011;18502;43.574;1.276;2023-07-29T08:56:51;9.82;;;4.35;;
31978;SDS011;18502;43.574;1.276;2023-07-29T08:59:17;7.78;;;4.63;;
31978;SDS011;18502;43.574;1.276;2023-07-29T09:01:45;5.97;;;4.20;;
31978;SDS011;18502;43.574;1.276;2023-07-29T09:04:12;5.03;;;3.95;;
31978;SDS011;18502;43.574;1.276;2023-07-29T09:06:38;4.88;;;4.07;;
31978;SDS011;18502;43.574;1.276;2023-07-29T09:09:04;6.72;;;4.00;;
31978;SDS011;18502;43.574;1.276;2023-07-29T09:11:32;7.43;;;4.22;;
31978;SDS011;18502;43.574;1.276;2023-07-29T09:13:58;6.57;;;4.15;;
31978;SDS011;18502;43.574;1.276;2023-07-29T09:16:24;4.80;;;4.20;;
31978;SDS011;18502;43.574;1.276;2023-07-29T09:18:50;6.20;;;3.60;;
31978;SDS011;18502;43.574;1.276;2023-07-29T09:21:17;6.30;;;4.00;;
31978;SDS011;18502;43.574;1.276;2023-07-29T09:23:47;4.32;;;3.80;;
31978;SDS011;18502;43.574;1.276;2023-07-29T09:26:18;4.80;;;4.25;;
31978;SDS011;18502;43.574;1.276;2023-07-29T09:28:57;5.22;;;3.97;;
31978;SDS011;18502;43.574;1.276;2023-07-29T09:31:24;7.72;;;3.92;;
31978;SDS011;18502;43.574;1.276;2023-07-29T09:33:57;6.00;;;4.05;;
31978;SDS011;18502;43.574;1.276;2023-07-29T09:36:25;7.00;;;4.57;;
31978;SDS011;18502;43.574;1.276;2023-07-29T09:38:55;5.72;;;4.25;;
31978;SDS011;18502;43.574;1.276;2023-07-29T09:41:25;6.13;;;3.95;;
31978;SDS011;18502;43.574;1.276;2023-07-29T09:43:58;4.55;;;4.05;;
31978;SDS011;18502;43.574;1.276;2023-07-29T09:46:25;4.85;;;3.92;;
31978;SDS011;18502;43.574;1.276;2023-07-29T09:48:56;5.85;;;3.33;;
31978;SDS011;18502;43.574;1.276;2023-07-29T09:51:22;4.95;;;4.32;;
31978;SDS011;18502;43.574;1.276;2023-07-29T09:53:49;5.93;;;4.05;;
31978;SDS011;18502;43.574;1.276;2023-07-29T09:56:16;8.48;;;3.83;;
31978;SDS011;18502;43.574;1.276;2023-07-29T09:58:45;9.05;;;4.53;;
31978;SDS011;18502;43.574;1.276;2023-07-29T10:01:11;6.17;;;3.83;;
31978;SDS011;18502;43.574;1.276;2023-07-29T10:03:37;6.40;;;3.67;;
31978;SDS011;18502;43.574;1.276;2023-07-29T10:06:03;6.22;;;3.78;;
31978;SDS011;18502;43.574;1.276;2023-07-29T10:08:30;7.50;;;3.67;;
31978;SDS011;18502;43.574;1.276;2023-07-29T10:10:59;4.97;;;3.80;;
31978;SDS011;18502;43.574;1.276;2023-07-29T10:13:25;4.72;;;3.90;;
31978;SDS011;18502;43.574;1.276;2023-07-29T10:15:51;4.40;;;4.00;;
31978;SDS011;18502;43.574;1.276;2023-07-29T10:18:19;7.15;;;3.83;;
31978;SDS011;18502;43.574;1.276;2023-07-29T10:20:47;4.88;;;4.00;;
31978;SDS011;18502;43.574;1.276;2023-07-29T10:23:15;5.32;;;3.63;;
31978;SDS011;18502;43.574;1.276;2023-07-29T10:25:47;5.93;;;4.55;;
31978;SDS011;18502;43.574;1.276;2023-07-29T10:28:20;6.53;;;4.57;;
31978;SDS011;18502;43.574;1.276;2023-07-29T10:30:50;6.85;;;4.38;;
31978;SDS011;18502;43.574;1.276;2023-07-29T10:33:17;6.55;;;4.05;;
31978;SDS011;18502;43.574;1.276;2023-07-29T10:35:42;4.25;;;3.85;;
31978;SDS011;18502;43.574;1.276;2023-07-29T10:38:09;4.65;;;3.70;;
31978;SDS011;18502;43.574;1.276;2023-07-29T10:43:34;5.40;;;4.20;;
31978;SDS011;18502;43.574;1.276;2023-07-29T10:46:18;5.32;;;3.88;;
31978;SDS011;18502;43.574;1.276;2023-07-29T10:53:48;4.72;;;3.63;;
31978;SDS011;18502;43.574;1.276;2023-07-29T10:56:29;7.53;;;3.67;;
31978;SDS011;18502;43.574;1.276;2023-07-29T10:59:01;4.45;;;3.55;;
31978;SDS011;18502;43.574;1.276;2023-07-29T11:01:37;4.90;;;3.85;;
31978;SDS011;18502;43.574;1.276;2023-07-29T11:17:43;4.45;;;3.97;;
31978;SDS011;18502;43.574;1.276;2023-07-29T11:20:12;5.57;;;3.47;;
31978;SDS011;18502;43.574;1.276;2023-07-29T11:22:39;4.07;;;3.67;;
31978;SDS011;18502;43.574;1.276;2023-07-29T11:25:08;4.75;;;3.60;;
31978;SDS011;18502;43.574;1.276;2023-07-29T11:27:35;5.53;;;3.72;;
31978;SDS011;18502;43.574;1.276;2023-07-29T11:30:05;4.65;;;3.92;;
31978;SDS011;18502;43.574;1.276;2023-07-29T11:32:33;7.40;;;3.53;;
31978;SDS011;18502;43.574;1.276;2023-07-29T11:35:09;6.28;;;3.67;;
31978;SDS011;18502;43.574;1.276;2023-07-29T11:37:47;6.85;;;3.80;;
31978;SDS011;18502;43.574;1.276;2023-07-29T11:40:15;8.82;;;4.10;;
31978;SDS011;18502;43.574;1.276;2023-07-29T11:42:42;5.60;;;3.88;;
31978;SDS011;18502;43.574;1.276;2023-07-29T11:45:09;4.40;;;3.22;;
31978;SDS011;18502;43.574;1.276;2023-07-29T11:47:35;5.15;;;3.63;;
31978;SDS011;18502;43.574;1.276;2023-07-29T11:50:05;4.40;;;3.38;;
31978;SDS011;18502;43.574;1.276;2023-07-29T11:52:38;4.35;;;2.97;;
31978;SDS011;18502;43.574;1.276;2023-07-29T11:55:06;4.55;;;3.00;;
31978;SDS011;18502;43.574;1.276;2023-07-29T11:57:38;5.15;;;3.35;;
31978;SDS011;18502;43.574;1.276;2023-07-29T12:00:05;3.50;;;3.20;;
31978;SDS011;18502;43.574;1.276;2023-07-29T12:02:33;4.03;;;3.47;;
31978;SDS011;18502;43.574;1.276;2023-07-29T12:05:04;3.38;;;2.80;;
31978;SDS011;18502;43.574;1.276;2023-07-29T12:07:31;6.38;;;3.10;;
31978;SDS011;18502;43.574;1.276;2023-07-29T12:09:58;3.47;;;2.90;;
31978;SDS011;18502;43.574;1.276;2023-07-29T12:12:24;3.33;;;2.95;;
31978;SDS011;18502;43.574;1.276;2023-07-29T12:14:50;4.47;;;3.33;;
31978;SDS011;18502;43.574;1.276;2023-07-29T12:17:17;4.97;;;3.22;;
31978;SDS011;18502;43.574;1.276;2023-07-29T12:19:43;5.00;;;3.00;;
31978;SDS011;18502;43.574;1.276;2023-07-29T12:22:09;3.47;;;2.72;;
31978;SDS011;18502;43.574;1.276;2023-07-29T12:24:40;3.78;;;3.13;;
31978;SDS011;18502;43.574;1.276;2023-07-29T12:27:13;4.88;;;3.08;;
31978;SDS011;18502;43.574;1.276;2023-07-29T12:29:41;3.40;;;3.10;;
31978;SDS011;18502;43.574;1.276;2023-07-29T12:32:07;3.33;;;3.10;;
31978;SDS011;18502;43.574;1.276;2023-07-29T12:34:34;3.15;;;2.92;;
31978;SDS011;18502;43.574;1.276;2023-07-29T12:37:02;5.00;;;3.08;;
31978;SDS011;18502;43.574;1.276;2023-07-29T12:39:29;5.88;;;3.17;;
31978;SDS011;18502;43.574;1.276;2023-07-29T12:41:57;4.65;;;3.30;;
31978;SDS011;18502;43.574;1.276;2023-07-29T12:44:25;5.80;;;3.35;;
31978;SDS011;18502;43.574;1.276;2023-07-29T12:46:55;6.65;;;3.15;;
31978;SDS011;18502;43.574;1.276;2023-07-29T12:49:21;4.40;;;3.20;;
31978;SDS011;18502;43.574;1.276;2023-07-29T12:51:47;6.30;;;3.45;;
31978;SDS011;18502;43.574;1.276;2023-07-29T12:54:13;3.15;;;2.85;;
31978;SDS011;18502;43.574;1.276;2023-07-29T12:56:38;6.25;;;3.15;;
31978;SDS011;18502;43.574;1.276;2023-07-29T12:59:04;2.65;;;2.45;;
31978;SDS011;18502;43.574;1.276;2023-07-29T13:01:30;5.05;;;3.45;;
31978;SDS011;18502;43.574;1.276;2023-07-29T13:03:56;3.67;;;2.97;;
31978;SDS011;18502;43.574;1.276;2023-07-29T13:06:22;4.60;;;2.72;;
31978;SDS011;18502;43.574;1.276;2023-07-29T13:08:48;3.25;;;2.88;;
31978;SDS011;18502;43.574;1.276;2023-07-29T13:11:14;3.13;;;2.83;;
31978;SDS011;18502;43.574;1.276;2023-07-29T13:13:40;3.53;;;3.22;;
31978;SDS011;18502;43.574;1.276;2023-07-29T13:16:06;5.40;;;3.20;;
31978;SDS011;18502;43.574;1.276;2023-07-29T13:18:32;3.58;;;3.28;;
31978;SDS011;18502;43.574;1.276;2023-07-29T13:20:58;4.32;;;3.25;;
31978;SDS011;18502;43.574;1.276;2023-07-29T13:23:25;3.00;;;2.78;;
31978;SDS011;18502;43.574;1.276;2023-07-29T13:25:51;3.13;;;2.92;;
31978;SDS011;18502;43.574;1.276;2023-07-29T13:28:17;3.25;;;2.95;;
31978;SDS011;18502;43.574;1.276;2023-07-29T13:30:44;5.22;;;3.55;;
31978;SDS011;18502;43.574;1.276;2023-07-29T13:33:09;3.50;;;3.17;;
31978;SDS011;18502;43.574;1.276;2023-07-29T13:35:35;4.18;;;3.33;;
31978;SDS011;18502;43.574;1.276;2023-07-29T13:38:01;4.85;;;3.10;;
31978;SDS011;18502;43.574;1.276;2023-07-29T13:40:27;3.55;;;3.20;;
31978;SDS011;18502;43.574;1.276;2023-07-29T13:42:53;4.18;;;3.28;;
31978;SDS011;18502;43.574;1.276;2023-07-29T13:45:20;5.45;;;3.13;;
31978;SDS011;18502;43.574;1.276;2023-07-29T13:47:46;4.68;;;3.35;;
31978;SDS011;18502;43.574;1.276;2023-07-29T13:50:11;4.50;;;3.30;;
31978;SDS011;18502;43.574;1.276;2023-07-29T13:52:37;4.30;;;3.58;;
31978;SDS011;18502;43.574;1.276;2023-07-29T13:55:04;4.10;;;3.63;;
31978;SDS011;18502;43.574;1.276;2023-07-29T13:57:30;4.05;;;3.50;;
31978;SDS011;18502;43.574;1.276;2023-07-29T13:59:56;4.50;;;3.13;;
31978;SDS011;18502;43.574;1.276;2023-07-29T14:02:22;4.60;;;3.65;;
31978;SDS011;18502;43.574;1.276;2023-07-29T14:04:48;3.10;;;2.72;;
31978;SDS011;18502;43.574;1.276;2023-07-29T14:07:14;3.63;;;2.97;;
31978;SDS011;18502;43.574;1.276;2023-07-29T14:09:39;3.50;;;3.03;;
31978;SDS011;18502;43.574;1.276;2023-07-29T14:12:07;3.73;;;3.07;;
31978;SDS011;18502;43.574;1.276;2023-07-29T14:14:37;4.88;;;3.17;;
31978;SDS011;18502;43.574;1.276;2023-07-29T14:17:03;4.25;;;3.55;;
31978;SDS011;18502;43.574;1.276;2023-07-29T14:19:29;3.28;;;2.97;;
31978;SDS011;18502;43.574;1.276;2023-07-29T14:21:55;3.42;;;3.13;;
31978;SDS011;18502;43.574;1.276;2023-07-29T14:24:20;5.63;;;3.47;;
31978;SDS011;18502;43.574;1.276;2023-07-29T14:26:47;4.22;;;3.10;;
31978;SDS011;18502;43.574;1.276;2023-07-29T14:29:13;3.88;;;3.00;;
31978;SDS011;18502;43.574;1.276;2023-07-29T14:31:39;3.00;;;2.80;;
31978;SDS011;18502;43.574;1.276;2023-07-29T14:34:04;3.60;;;3.30;;
31978;SDS011;18502;43.574;1.276;2023-07-29T14:36:30;4.60;;;3.72;;
31978;SDS011;18502;43.574;1.276;2023-07-29T14:38:56;4.82;;;3.13;;
31978;SDS011;18502;43.574;1.276;2023-07-29T14:41:21;4.90;;;3.30;;
31978;SDS011;18502;43.574;1.276;2023-07-29T14:43:47;3.47;;;3.08;;
31978;SDS011;18502;43.574;1.276;2023-07-29T14:46:13;4.20;;;3.30;;
31978;SDS011;18502;43.574;1.276;2023-07-29T14:48:38;5.57;;;3.35;;
31978;SDS011;18502;43.574;1.276;2023-07-29T14:51:04;3.55;;;3.22;;
31978;SDS011;18502;43.574;1.276;2023-07-29T14:53:30;5.05;;;3.22;;
31978;SDS011;18502;43.574;1.276;2023-07-29T14:55:55;3.33;;;2.95;;
31978;SDS011;18502;43.574;1.276;2023-07-29T14:58:21;4.20;;;3.40;;
31978;SDS011;18502;43.574;1.276;2023-07-29T15:00:48;23.65;;;4.65;;
31978;SDS011;18502;43.574;1.276;2023-07-29T15:03:13;4.40;;;3.10;;
31978;SDS011;18502;43.574;1.276;2023-07-29T15:05:39;3.45;;;2.95;;
31978;SDS011;18502;43.574;1.276;2023-07-29T15:08:05;4.88;;;3.40;;
31978;SDS011;18502;43.574;1.276;2023-07-29T15:10:31;5.18;;;3.83;;
31978;SDS011;18502;43.574;1.276;2023-07-29T15:12:57;4.10;;;2.90;;
31978;SDS011;18502;43.574;1.276;2023-07-29T15:15:22;3.97;;;3.13;;
31978;SDS011;18502;43.574;1.276;2023-07-29T15:17:48;3.85;;;2.92;;